GCLP

Gran Canaria Airport

Gran Canaria Island, Spain
METAR GCLP 172100Z 33011KT 290V010 9999 SCT065 20/13 Q1011 NOSIG
Observed Flight Rules
Nov-17 @ 21:00 UTC (36 minutes ago) Visual Flight Rules
Wind Visibility Clouds
330° at 11 knots 10,000+ meters
  • Scattered at 6,500' AGL
Temperatures Readings
Current 20°C / 68°F
Dewpoint 13°C / 55°F
Humidity 64%
Altimeter 29.85" Hg
Pressure 1011 hPa
Elevation 25
METAR GCLP 172100Z 33011KT 290V010 9999 SCT065 20/13 Q1011 NOSIG
Observed Flight Rules
Nov-17 @ 21:00 UTC
(36 minutes ago)
VFR
Wind Visibility
330° at 11 knots 10,000+ meters
Clouds
  • Scattered at 6,500' AGL
Temperature Dewpoint
20°C / 68°F 13°C / 55°F
Humidity Altimeter Pressure
64% 29.85" Hg 1011 hPa